sensor_id;sensor_type;location;lat;lon;timestamp;P1;P2;P0
46302;PMS7003;32029;51.358;5.628;2022-11-14T00:00:56;13.00;13.00;9.00
46302;PMS7003;32029;51.358;5.628;2022-11-14T00:03:23;10.67;10.00;7.00
46302;PMS7003;32029;51.358;5.628;2022-11-14T00:05:51;11.17;11.17;10.33
46302;PMS7003;32029;51.358;5.628;2022-11-14T00:08:23;14.00;14.00;9.60
46302;PMS7003;32029;51.358;5.628;2022-11-14T00:10:52;13.67;13.00;10.00
46302;PMS7003;32029;51.358;5.628;2022-11-14T00:13:19;10.67;10.67;8.33
46302;PMS7003;32029;51.358;5.628;2022-11-14T00:15:48;10.33;10.33;6.67
46302;PMS7003;32029;51.358;5.628;2022-11-14T00:18:16;9.67;9.67;7.67
46302;PMS7003;32029;51.358;5.628;2022-11-14T00:20:48;12.00;11.83;9.83
46302;PMS7003;32029;51.358;5.628;2022-11-14T00:23:18;12.80;12.80;9.80
46302;PMS7003;32029;51.358;5.628;2022-11-14T00:25:47;12.00;12.00;9.00
46302;PMS7003;32029;51.358;5.628;2022-11-14T00:28:15;12.60;11.40;9.40
46302;PMS7003;32029;51.358;5.628;2022-11-14T00:30:47;12.00;10.40;8.80
46302;PMS7003;32029;51.358;5.628;2022-11-14T00:33:14;13.00;11.67;9.67
46302;PMS7003;32029;51.358;5.628;2022-11-14T00:35:48;16.33;13.67;11.00
46302;PMS7003;32029;51.358;5.628;2022-11-14T00:38:24;10.00;10.00;9.00
46302;PMS7003;32029;51.358;5.628;2022-11-14T00:40:53;16.50;16.50;13.00
46302;PMS7003;32029;51.358;5.628;2022-11-14T00:43:20;14.00;14.00;10.67
46302;PMS7003;32029;51.358;5.628;2022-11-14T00:45:47;10.33;10.33;8.33
46302;PMS7003;32029;51.358;5.628;2022-11-14T00:48:14;17.67;12.33;9.33
46302;PMS7003;32029;51.358;5.628;2022-11-14T00:50:42;15.80;12.40;8.20
46302;PMS7003;32029;51.358;5.628;2022-11-14T00:53:10;0.00;0.00;0.00
46302;PMS7003;32029;51.358;5.628;2022-11-14T00:55:37;14.33;14.00;11.67
46302;PMS7003;32029;51.358;5.628;2022-11-14T00:58:05;14.00;13.00;9.20
46302;PMS7003;32029;51.358;5.628;2022-11-14T01:00:34;15.17;13.67;9.83
46302;PMS7003;32029;51.358;5.628;2022-11-14T01:03:03;12.80;10.20;8.00
46302;PMS7003;32029;51.358;5.628;2022-11-14T01:05:31;13.17;13.17;10.83
46302;PMS7003;32029;51.358;5.628;2022-11-14T01:08:15;13.33;12.67;10.17
46302;PMS7003;32029;51.358;5.628;2022-11-14T01:10:51;12.33;12.33;9.33
46302;PMS7003;32029;51.358;5.628;2022-11-14T01:13:43;10.00;10.00;9.33
46302;PMS7003;32029;51.358;5.628;2022-11-14T01:16:12;12.00;12.00;9.20
46302;PMS7003;32029;51.358;5.628;2022-11-14T01:18:50;13.67;10.67;9.00
46302;PMS7003;32029;51.358;5.628;2022-11-14T01:21:32;13.33;13.33;10.33
46302;PMS7003;32029;51.358;5.628;2022-11-14T01:24:00;10.00;10.00;8.20
46302;PMS7003;32029;51.358;5.628;2022-11-14T01:26:32;13.80;13.80;9.80
46302;PMS7003;32029;51.358;5.628;2022-11-14T01:29:03;14.00;13.00;9.33
46302;PMS7003;32029;51.358;5.628;2022-11-14T01:32:26;13.00;12.00;9.20
46302;PMS7003;32029;51.358;5.628;2022-11-14T01:35:02;11.33;11.33;9.00
46302;PMS7003;32029;51.358;5.628;2022-11-14T01:37:31;14.50;13.00;11.00
46302;PMS7003;32029;51.358;5.628;2022-11-14T01:39:59;10.20;10.20;8.20
46302;PMS7003;32029;51.358;5.628;2022-11-14T01:42:26;12.20;10.80;8.20
46302;PMS7003;32029;51.358;5.628;2022-11-14T01:44:55;13.67;11.17;9.83
46302;PMS7003;32029;51.358;5.628;2022-11-14T01:47:23;14.00;14.00;11.67
46302;PMS7003;32029;51.358;5.628;2022-11-14T01:49:57;15.60;11.60;8.00
46302;PMS7003;32029;51.358;5.628;2022-11-14T01:55:02;14.33;13.17;10.17
46302;PMS7003;32029;51.358;5.628;2022-11-14T01:57:33;12.33;10.00;9.67
46302;PMS7003;32029;51.358;5.628;2022-11-14T02:00:06;12.20;12.00;9.00
46302;PMS7003;32029;51.358;5.628;2022-11-14T02:02:37;13.17;13.17;10.00
46302;PMS7003;32029;51.358;5.628;2022-11-14T02:05:07;12.67;12.67;9.67
46302;PMS7003;32029;51.358;5.628;2022-11-14T02:07:38;3.67;3.67;1.33
46302;PMS7003;32029;51.358;5.628;2022-11-14T02:10:09;16.50;16.50;11.17
46302;PMS7003;32029;51.358;5.628;2022-11-14T02:12:43;14.00;14.00;11.83
46302;PMS7003;32029;51.358;5.628;2022-11-14T02:15:13;12.67;12.67;10.17
46302;PMS7003;32029;51.358;5.628;2022-11-14T02:17:42;15.17;15.17;11.50
46302;PMS7003;32029;51.358;5.628;2022-11-14T02:22:41;14.50;13.50;9.83
46302;PMS7003;32029;51.358;5.628;2022-11-14T02:25:09;12.60;12.40;9.40
46302;PMS7003;32029;51.358;5.628;2022-11-14T02:27:41;11.33;11.33;9.00
46302;PMS7003;32029;51.358;5.628;2022-11-14T02:30:11;12.20;12.20;9.00
46302;PMS7003;32029;51.358;5.628;2022-11-14T02:32:41;14.33;13.00;9.67
46302;PMS7003;32029;51.358;5.628;2022-11-14T02:35:10;13.67;13.50;10.50
46302;PMS7003;32029;51.358;5.628;2022-11-14T02:37:39;16.83;13.83;12.00
46302;PMS7003;32029;51.358;5.628;2022-11-14T02:40:07;14.00;13.60;9.60
46302;PMS7003;32029;51.358;5.628;2022-11-14T02:42:35;21.67;13.33;9.67
46302;PMS7003;32029;51.358;5.628;2022-11-14T02:45:03;15.60;12.20;9.00
46302;PMS7003;32029;51.358;5.628;2022-11-14T02:47:31;16.50;12.67;9.50
46302;PMS7003;32029;51.358;5.628;2022-11-14T02:49:58;14.00;11.33;9.33
46302;PMS7003;32029;51.358;5.628;2022-11-14T02:52:27;13.83;13.00;12.00
46302;PMS7003;32029;51.358;5.628;2022-11-14T02:54:54;13.67;9.67;8.67
46302;PMS7003;32029;51.358;5.628;2022-11-14T02:57:20;10.33;10.33;8.67
46302;PMS7003;32029;51.358;5.628;2022-11-14T02:59:48;12.80;12.80;10.40
46302;PMS7003;32029;51.358;5.628;2022-11-14T03:02:15;12.67;12.00;9.00
46302;PMS7003;32029;51.358;5.628;2022-11-14T03:04:42;12.67;10.33;8.67
46302;PMS7003;32029;51.358;5.628;2022-11-14T03:07:11;11.20;9.80;8.60
46302;PMS7003;32029;51.358;5.628;2022-11-14T03:09:37;13.33;10.67;9.33
46302;PMS7003;32029;51.358;5.628;2022-11-14T03:12:06;14.17;14.17;10.00
46302;PMS7003;32029;51.358;5.628;2022-11-14T03:14:34;9.00;9.00;8.00
46302;PMS7003;32029;51.358;5.628;2022-11-14T03:17:02;12.00;11.40;9.20
46302;PMS7003;32029;51.358;5.628;2022-11-14T03:19:30;14.60;12.60;9.40
46302;PMS7003;32029;51.358;5.628;2022-11-14T03:21:58;13.00;12.80;9.40
46302;PMS7003;32029;51.358;5.628;2022-11-14T03:24:26;15.40;10.00;8.00
46302;PMS7003;32029;51.358;5.628;2022-11-14T03:26:54;10.40;9.60;8.80
46302;PMS7003;32029;51.358;5.628;2022-11-14T03:29:22;10.80;9.60;7.60
46302;PMS7003;32029;51.358;5.628;2022-11-14T03:31:50;10.60;10.40;8.40
46302;PMS7003;32029;51.358;5.628;2022-11-14T03:34:17;8.33;8.00;6.00
46302;PMS7003;32029;51.358;5.628;2022-11-14T03:36:43;9.67;8.33;6.67
46302;PMS7003;32029;51.358;5.628;2022-11-14T03:39:10;12.33;8.33;6.67
46302;PMS7003;32029;51.358;5.628;2022-11-14T03:41:39;12.83;12.83;9.83
46302;PMS7003;32029;51.358;5.628;2022-11-14T03:44:07;11.60;11.60;8.80
46302;PMS7003;32029;51.358;5.628;2022-11-14T03:46:35;5.00;5.00;4.33
46302;PMS7003;32029;51.358;5.628;2022-11-14T03:49:01;8.67;8.33;6.67
46302;PMS7003;32029;51.358;5.628;2022-11-14T03:51:30;15.50;14.17;11.50
46302;PMS7003;32029;51.358;5.628;2022-11-14T03:53:58;12.20;12.20;9.40
46302;PMS7003;32029;51.358;5.628;2022-11-14T03:56:27;16.50;13.50;9.50
46302;PMS7003;32029;51.358;5.628;2022-11-14T03:58:55;10.67;10.67;8.00
46302;PMS7003;32029;51.358;5.628;2022-11-14T04:01:22;9.00;9.00;8.00
46302;PMS7003;32029;51.358;5.628;2022-11-14T04:03:50;13.67;12.17;11.00
46302;PMS7003;32029;51.358;5.628;2022-11-14T04:06:18;12.20;12.20;9.40
46302;PMS7003;32029;51.358;5.628;2022-11-14T04:08:46;11.80;9.40;8.60
46302;PMS7003;32029;51.358;5.628;2022-11-14T04:11:16;16.33;12.50;9.83
46302;PMS7003;32029;51.358;5.628;2022-11-14T04:13:43;9.00;9.00;6.00
46302;PMS7003;32029;51.358;5.628;2022-11-14T04:16:09;9.33;9.33;6.67
46302;PMS7003;32029;51.358;5.628;2022-11-14T04:18:36;10.67;10.67;7.33
46302;PMS7003;32029;51.358;5.628;2022-11-14T04:21:03;12.00;11.00;8.00
46302;PMS7003;32029;51.358;5.628;2022-11-14T04:23:30;12.67;9.00;8.00
46302;PMS7003;32029;51.358;5.628;2022-11-14T04:25:56;6.00;6.00;6.00
46302;PMS7003;32029;51.358;5.628;2022-11-14T04:28:24;11.80;9.40;7.20
46302;PMS7003;32029;51.358;5.628;2022-11-14T04:30:51;10.00;8.33;5.67
46302;PMS7003;32029;51.358;5.628;2022-11-14T04:33:17;8.00;8.00;7.00
46302;PMS7003;32029;51.358;5.628;2022-11-14T04:35:44;12.67;11.00;8.00
46302;PMS7003;32029;51.358;5.628;2022-11-14T04:38:10;8.33;6.00;5.00
46302;PMS7003;32029;51.358;5.628;2022-11-14T04:40:37;9.00;7.67;5.00
46302;PMS7003;32029;51.358;5.628;2022-11-14T04:43:04;11.00;11.00;9.00
46302;PMS7003;32029;51.358;5.628;2022-11-14T04:45:32;11.80;11.80;9.80
46302;PMS7003;32029;51.358;5.628;2022-11-14T04:48:00;14.67;13.17;11.00
46302;PMS7003;32029;51.358;5.628;2022-11-14T04:50:28;12.20;11.00;8.00
46302;PMS7003;32029;51.358;5.628;2022-11-14T04:52:56;11.60;11.60;10.20
46302;PMS7003;32029;51.358;5.628;2022-11-14T04:55:22;11.00;11.00;9.00
46302;PMS7003;32029;51.358;5.628;2022-11-14T04:57:53;9.00;9.00;8.00
46302;PMS7003;32029;51.358;5.628;2022-11-14T05:00:21;11.00;11.00;9.00
46302;PMS7003;32029;51.358;5.628;2022-11-14T05:02:48;8.00;8.00;6.00
46302;PMS7003;32029;51.358;5.628;2022-11-14T05:05:15;11.33;9.00;8.00
46302;PMS7003;32029;51.358;5.628;2022-11-14T05:07:45;10.71;10.71;7.71
46302;PMS7003;32029;51.358;5.628;2022-11-14T05:10:12;15.67;13.00;11.00
46302;PMS7003;32029;51.358;5.628;2022-11-14T05:12:39;13.67;13.67;9.67
46302;PMS7003;32029;51.358;5.628;2022-11-14T05:15:05;8.67;7.67;5.00
46302;PMS7003;32029;51.358;5.628;2022-11-14T05:17:33;14.67;8.67;6.67
46302;PMS7003;32029;51.358;5.628;2022-11-14T05:20:01;13.80;11.20;6.80
46302;PMS7003;32029;51.358;5.628;2022-11-14T05:22:27;8.00;5.67;5.00
46302;PMS7003;32029;51.358;5.628;2022-11-14T05:24:54;8.50;8.50;7.00
46302;PMS7003;32029;51.358;5.628;2022-11-14T05:27:20;7.33;7.33;5.33
46302;PMS7003;32029;51.358;5.628;2022-11-14T05:29:47;10.33;8.00;7.67
46302;PMS7003;32029;51.358;5.628;2022-11-14T05:32:14;8.00;8.00;7.67
46302;PMS7003;32029;51.358;5.628;2022-11-14T05:34:41;9.00;9.00;8.67
46302;PMS7003;32029;51.358;5.628;2022-11-14T05:37:09;8.80;8.00;7.20
46302;PMS7003;32029;51.358;5.628;2022-11-14T05:39:36;6.33;5.33;5.00
46302;PMS7003;32029;51.358;5.628;2022-11-14T05:42:03;9.33;9.33;8.33
46302;PMS7003;32029;51.358;5.628;2022-11-14T05:44:29;2.50;1.00;0.00
46302;PMS7003;32029;51.358;5.628;2022-11-14T05:46:55;8.67;7.67;4.67
46302;PMS7003;32029;51.358;5.628;2022-11-14T05:49:22;12.33;9.67;8.00
46302;PMS7003;32029;51.358;5.628;2022-11-14T05:51:49;9.00;8.00;7.33
46302;PMS7003;32029;51.358;5.628;2022-11-14T05:54:15;11.33;11.00;9.00
46302;PMS7003;32029;51.358;5.628;2022-11-14T05:56:42;9.00;9.00;8.00
46302;PMS7003;32029;51.358;5.628;2022-11-14T05:59:09;9.00;9.00;8.00
46302;PMS7003;32029;51.358;5.628;2022-11-14T06:01:36;6.33;5.33;4.67
46302;PMS7003;32029;51.358;5.628;2022-11-14T06:04:04;2.00;0.00;0.00
46302;PMS7003;32029;51.358;5.628;2022-11-14T06:06:31;7.00;7.00;5.33
46302;PMS7003;32029;51.358;5.628;2022-11-14T06:08:58;8.00;8.00;5.67
46302;PMS7003;32029;51.358;5.628;2022-11-14T06:11:25;9.80;9.80;7.80
46302;PMS7003;32029;51.358;5.628;2022-11-14T06:13:52;8.67;8.67;7.00
46302;PMS7003;32029;51.358;5.628;2022-11-14T06:16:19;9.00;8.50;7.00
46302;PMS7003;32029;51.358;5.628;2022-11-14T06:18:45;2.67;1.00;0.00
46302;PMS7003;32029;51.358;5.628;2022-11-14T06:21:17;8.00;8.00;5.33
46302;PMS7003;32029;51.358;5.628;2022-11-14T06:23:45;12.00;8.67;7.67
46302;PMS7003;32029;51.358;5.628;2022-11-14T06:26:25;9.00;9.00;8.00
46302;PMS7003;32029;51.358;5.628;2022-11-14T06:28:55;8.67;7.67;5.67
46302;PMS7003;32029;51.358;5.628;2022-11-14T06:31:22;7.33;7.33;6.67
46302;PMS7003;32029;51.358;5.628;2022-11-14T06:33:50;4.00;4.00;4.00
46302;PMS7003;32029;51.358;5.628;2022-11-14T06:36:17;9.67;9.67;8.33
46302;PMS7003;32029;51.358;5.628;2022-11-14T06:38:44;12.33;10.33;8.67
46302;PMS7003;32029;51.358;5.628;2022-11-14T06:41:18;9.00;9.00;7.33
46302;PMS7003;32029;51.358;5.628;2022-11-14T06:43:50;11.00;11.00;8.00
46302;PMS7003;32029;51.358;5.628;2022-11-14T06:46:19;9.67;9.67;8.67
46302;PMS7003;32029;51.358;5.628;2022-11-14T06:48:48;9.67;9.67;8.00
46302;PMS7003;32029;51.358;5.628;2022-11-14T06:51:15;9.67;8.33;7.33
46302;PMS7003;32029;51.358;5.628;2022-11-14T06:53:42;9.00;9.00;8.00
46302;PMS7003;32029;51.358;5.628;2022-11-14T06:56:10;9.00;8.00;7.00
46302;PMS7003;32029;51.358;5.628;2022-11-14T06:58:42;9.00;9.00;7.50
46302;PMS7003;32029;51.358;5.628;2022-11-14T07:03:42;5.67;5.00;4.00
46302;PMS7003;32029;51.358;5.628;2022-11-14T07:06:10;11.00;8.33;7.00
46302;PMS7003;32029;51.358;5.628;2022-11-14T07:08:38;9.00;8.50;7.00
46302;PMS7003;32029;51.358;5.628;2022-11-14T07:11:07;8.00;8.00;6.50
46302;PMS7003;32029;51.358;5.628;2022-11-14T07:13:54;10.33;8.67;7.67
46302;PMS7003;32029;51.358;5.628;2022-11-14T07:16:30;11.00;9.00;8.00
46302;PMS7003;32029;51.358;5.628;2022-11-14T07:19:01;11.00;11.00;9.00
46302;PMS7003;32029;51.358;5.628;2022-11-14T07:21:30;12.00;10.60;8.00
46302;PMS7003;32029;51.358;5.628;2022-11-14T07:23:58;8.50;8.50;8.00
46302;PMS7003;32029;51.358;5.628;2022-11-14T07:26:26;10.20;8.00;6.60
46302;PMS7003;32029;51.358;5.628;2022-11-14T07:28:52;11.67;8.33;5.33
46302;PMS7003;32029;51.358;5.628;2022-11-14T07:31:19;8.00;8.00;7.33
46302;PMS7003;32029;51.358;5.628;2022-11-14T07:33:48;10.60;6.80;6.80
46302;PMS7003;32029;51.358;5.628;2022-11-14T07:36:16;8.60;8.60;6.80
46302;PMS7003;32029;51.358;5.628;2022-11-14T07:38:43;12.67;10.33;9.00
46302;PMS7003;32029;51.358;5.628;2022-11-14T07:41:11;6.67;5.67;2.00
46302;PMS7003;32029;51.358;5.628;2022-11-14T07:43:39;12.00;12.00;9.67
46302;PMS7003;32029;51.358;5.628;2022-11-14T07:46:12;9.40;9.40;8.20
46302;PMS7003;32029;51.358;5.628;2022-11-14T07:48:41;10.33;10.33;9.00
46302;PMS7003;32029;51.358;5.628;2022-11-14T07:51:09;14.00;14.00;9.00
46302;PMS7003;32029;51.358;5.628;2022-11-14T07:53:40;9.50;8.00;7.00
46302;PMS7003;32029;51.358;5.628;2022-11-14T07:56:07;11.67;9.00;8.00
46302;PMS7003;32029;51.358;5.628;2022-11-14T07:58:38;9.67;9.67;8.00
46302;PMS7003;32029;51.358;5.628;2022-11-14T08:01:06;9.67;9.67;6.67
46302;PMS7003;32029;51.358;5.628;2022-11-14T08:03:35;11.00;10.33;8.00
46302;PMS7003;32029;51.358;5.628;2022-11-14T08:08:30;9.00;9.00;8.00
46302;PMS7003;32029;51.358;5.628;2022-11-14T08:10:58;11.80;11.80;9.00
46302;PMS7003;32029;51.358;5.628;2022-11-14T08:13:27;10.00;9.80;7.60
46302;PMS7003;32029;51.358;5.628;2022-11-14T08:15:54;10.67;10.67;10.00
46302;PMS7003;32029;51.358;5.628;2022-11-14T08:18:21;13.00;9.00;9.00
46302;PMS7003;32029;51.358;5.628;2022-11-14T08:20:49;11.67;11.67;9.67
46302;PMS7003;32029;51.358;5.628;2022-11-14T08:23:16;10.00;10.00;8.67
46302;PMS7003;32029;51.358;5.628;2022-11-14T08:25:42;11.67;11.00;8.67
46302;PMS7003;32029;51.358;5.628;2022-11-14T08:28:09;13.00;11.67;9.67
46302;PMS7003;32029;51.358;5.628;2022-11-14T08:30:36;5.67;4.33;4.33
46302;PMS7003;32029;51.358;5.628;2022-11-14T08:33:04;9.60;9.60;8.60
46302;PMS7003;32029;51.358;5.628;2022-11-14T08:35:37;12.80;10.00;8.00
46302;PMS7003;32029;51.358;5.628;2022-11-14T08:38:08;12.00;12.00;10.00
46302;PMS7003;32029;51.358;5.628;2022-11-14T08:40:35;15.00;12.33;9.33
46302;PMS7003;32029;51.358;5.628;2022-11-14T08:43:01;4.67;4.67;4.00
46302;PMS7003;32029;51.358;5.628;2022-11-14T08:45:28;5.00;5.00;4.67
46302;PMS7003;32029;51.358;5.628;2022-11-14T08:47:57;9.80;9.00;8.20
46302;PMS7003;32029;51.358;5.628;2022-11-14T08:50:24;12.33;12.33;10.00
46302;PMS7003;32029;51.358;5.628;2022-11-14T08:52:52;14.40;11.20;8.80
46302;PMS7003;32029;51.358;5.628;2022-11-14T08:55:21;13.00;12.60;10.00
46302;PMS7003;32029;51.358;5.628;2022-11-14T08:57:48;13.33;12.00;9.00
46302;PMS7003;32029;51.358;5.628;2022-11-14T09:00:19;12.00;12.00;10.33
46302;PMS7003;32029;51.358;5.628;2022-11-14T09:02:48;13.33;13.33;11.17
46302;PMS7003;32029;51.358;5.628;2022-11-14T09:05:15;18.00;14.67;9.33
46302;PMS7003;32029;51.358;5.628;2022-11-14T09:07:43;14.00;14.00;9.20
46302;PMS7003;32029;51.358;5.628;2022-11-14T09:10:10;15.00;14.67;11.00
46302;PMS7003;32029;51.358;5.628;2022-11-14T09:12:39;18.33;15.00;11.50
46302;PMS7003;32029;51.358;5.628;2022-11-14T09:15:06;14.33;11.67;9.00
46302;PMS7003;32029;51.358;5.628;2022-11-14T09:17:35;17.67;15.83;12.50
46302;PMS7003;32029;51.358;5.628;2022-11-14T09:20:04;14.40;11.00;9.00
46302;PMS7003;32029;51.358;5.628;2022-11-14T09:22:31;9.33;9.33;7.00
46302;PMS7003;32029;51.358;5.628;2022-11-14T09:24:58;13.00;11.00;9.00
46302;PMS7003;32029;51.358;5.628;2022-11-14T09:27:26;11.00;11.00;10.00
46302;PMS7003;32029;51.358;5.628;2022-11-14T09:29:54;13.00;11.00;9.00
46302;PMS7003;32029;51.358;5.628;2022-11-14T09:32:23;21.67;16.17;13.00
46302;PMS7003;32029;51.358;5.628;2022-11-14T09:34:52;16.00;14.00;10.17
46302;PMS7003;32029;51.358;5.628;2022-11-14T09:37:20;13.83;13.83;10.00
46302;PMS7003;32029;51.358;5.628;2022-11-14T09:39:48;16.67;16.67;13.33
46302;PMS7003;32029;51.358;5.628;2022-11-14T09:42:19;14.00;14.00;11.00
46302;PMS7003;32029;51.358;5.628;2022-11-14T09:45:03;15.00;14.67;11.67
46302;PMS7003;32029;51.358;5.628;2022-11-14T09:47:38;19.00;15.67;11.00
46302;PMS7003;32029;51.358;5.628;2022-11-14T09:50:28;15.00;15.00;10.00
46302;PMS7003;32029;51.358;5.628;2022-11-14T09:53:09;14.67;14.67;12.00
46302;PMS7003;32029;51.358;5.628;2022-11-14T09:55:45;19.33;15.67;12.00
46302;PMS7003;32029;51.358;5.628;2022-11-14T09:58:17;15.33;15.17;10.50
46302;PMS7003;32029;51.358;5.628;2022-11-14T10:00:49;16.67;14.67;11.00
46302;PMS7003;32029;51.358;5.628;2022-11-14T10:11:57;15.00;14.67;11.67
46302;PMS7003;32029;51.358;5.628;2022-11-14T10:14:31;18.33;17.00;12.00
46302;PMS7003;32029;51.358;5.628;2022-11-14T10:17:39;14.33;14.33;12.00
46302;PMS7003;32029;51.358;5.628;2022-11-14T10:20:41;16.67;13.67;10.33
46302;PMS7003;32029;51.358;5.628;2022-11-14T10:23:28;21.00;17.67;13.00
46302;PMS7003;32029;51.358;5.628;2022-11-14T10:26:14;14.33;14.33;10.33
46302;PMS7003;32029;51.358;5.628;2022-11-14T10:29:21;15.33;15.33;11.00
46302;PMS7003;32029;51.358;5.628;2022-11-14T10:37:36;26.00;22.33;16.33
46302;PMS7003;32029;51.358;5.628;2022-11-14T10:42:53;23.00;22.33;12.67
46302;PMS7003;32029;51.358;5.628;2022-11-14T10:45:24;26.00;21.00;15.00
46302;PMS7003;32029;51.358;5.628;2022-11-14T10:48:14;23.00;18.00;15.33
46302;PMS7003;32029;51.358;5.628;2022-11-14T10:50:50;21.00;19.00;13.33
46302;PMS7003;32029;51.358;5.628;2022-11-14T10:56:09;17.67;17.67;12.33
46302;PMS7003;32029;51.358;5.628;2022-11-14T10:58:38;18.00;18.00;13.00
46302;PMS7003;32029;51.358;5.628;2022-11-14T11:06:54;26.00;24.67;16.00
46302;PMS7003;32029;51.358;5.628;2022-11-14T11:09:26;23.67;22.67;15.33
46302;PMS7003;32029;51.358;5.628;2022-11-14T11:12:16;16.33;16.00;8.67
46302;PMS7003;32029;51.358;5.628;2022-11-14T11:14:46;24.33;22.33;17.67
46302;PMS7003;32029;51.358;5.628;2022-11-14T11:17:32;14.67;14.67;12.00
46302;PMS7003;32029;51.358;5.628;2022-11-14T11:20:22;16.17;13.17;9.83
46302;PMS7003;32029;51.358;5.628;2022-11-14T11:23:02;16.67;14.67;10.67
46302;PMS7003;32029;51.358;5.628;2022-11-14T11:25:42;17.33;15.33;10.33
46302;PMS7003;32029;51.358;5.628;2022-11-14T11:28:16;18.00;18.00;13.33
46302;PMS7003;32029;51.358;5.628;2022-11-14T11:30:55;18.67;17.00;13.00
46302;PMS7003;32029;51.358;5.628;2022-11-14T11:33:25;14.00;14.00;11.33
46302;PMS7003;32029;51.358;5.628;2022-11-14T11:36:04;20.00;17.67;12.00
46302;PMS7003;32029;51.358;5.628;2022-11-14T11:38:37;19.00;18.00;13.67
46302;PMS7003;32029;51.358;5.628;2022-11-14T11:44:01;22.67;19.33;15.00
46302;PMS7003;32029;51.358;5.628;2022-11-14T11:46:39;24.67;20.33;15.00
46302;PMS7003;32029;51.358;5.628;2022-11-14T11:49:16;19.33;18.67;13.00
46302;PMS7003;32029;51.358;5.628;2022-11-14T11:51:47;20.83;18.67;13.67
46302;PMS7003;32029;51.358;5.628;2022-11-14T11:54:21;21.33;19.67;14.00
46302;PMS7003;32029;51.358;5.628;2022-11-14T11:56:54;23.67;19.00;14.00
46302;PMS7003;32029;51.358;5.628;2022-11-14T11:59:30;20.00;19.67;15.67
46302;PMS7003;32029;51.358;5.628;2022-11-14T12:02:14;17.83;14.00;11.00
46302;PMS7003;32029;51.358;5.628;2022-11-14T12:04:48;25.00;17.33;12.67
46302;PMS7003;32029;51.358;5.628;2022-11-14T12:07:18;18.67;14.67;10.00
46302;PMS7003;32029;51.358;5.628;2022-11-14T12:09:47;24.00;20.00;15.67
46302;PMS7003;32029;51.358;5.628;2022-11-14T12:12:23;26.67;20.00;14.33
46302;PMS7003;32029;51.358;5.628;2022-11-14T12:15:07;19.67;16.00;12.00
46302;PMS7003;32029;51.358;5.628;2022-11-14T12:23:30;24.00;15.67;12.00
46302;PMS7003;32029;51.358;5.628;2022-11-14T12:29:10;23.67;21.33;15.33
46302;PMS7003;32029;51.358;5.628;2022-11-14T12:31:41;16.67;16.67;13.67
46302;PMS7003;32029;51.358;5.628;2022-11-14T12:36:45;21.00;17.67;13.67
46302;PMS7003;32029;51.358;5.628;2022-11-14T12:39:26;25.33;17.67;12.67
46302;PMS7003;32029;51.358;5.628;2022-11-14T12:42:05;16.67;15.33;11.67
46302;PMS7003;32029;51.358;5.628;2022-11-14T12:44:36;19.67;18.33;14.67
46302;PMS7003;32029;51.358;5.628;2022-11-14T13:11:53;12.60;12.20;9.20
46302;PMS7003;32029;51.358;5.628;2022-11-14T13:14:58;7.67;7.33;6.33
46302;PMS7003;32029;51.358;5.628;2022-11-14T13:21:19;13.00;13.00;9.67
46302;PMS7003;32029;51.358;5.628;2022-11-14T13:24:09;8.00;8.00;7.00
46302;PMS7003;32029;51.358;5.628;2022-11-14T13:26:39;14.60;12.60;8.80
46302;PMS7003;32029;51.358;5.628;2022-11-14T13:32:02;12.60;10.40;8.00
46302;PMS7003;32029;51.358;5.628;2022-11-14T13:37:20;13.33;9.00;7.00
46302;PMS7003;32029;51.358;5.628;2022-11-14T13:40:19;17.00;13.00;9.33
46302;PMS7003;32029;51.358;5.628;2022-11-14T13:45:33;18.00;13.33;10.00
46302;PMS7003;32029;51.358;5.628;2022-11-14T13:48:18;14.20;10.40;9.00
46302;PMS7003;32029;51.358;5.628;2022-11-14T13:51:00;12.60;12.60;9.00
46302;PMS7003;32029;51.358;5.628;2022-11-14T13:53:33;13.80;11.40;9.60
46302;PMS7003;32029;51.358;5.628;2022-11-14T13:56:23;16.83;13.33;9.50
46302;PMS7003;32029;51.358;5.628;2022-11-14T14:05:15;16.67;11.83;8.83
46302;PMS7003;32029;51.358;5.628;2022-11-14T14:11:05;13.40;9.60;7.80
46302;PMS7003;32029;51.358;5.628;2022-11-14T14:19:31;9.60;9.40;7.80
46302;PMS7003;32029;51.358;5.628;2022-11-14T14:22:18;10.00;9.00;7.60
46302;PMS7003;32029;51.358;5.628;2022-11-14T14:25:02;10.00;8.00;5.00
46302;PMS7003;32029;51.358;5.628;2022-11-14T14:27:48;16.00;14.33;10.00
46302;PMS7003;32029;51.358;5.628;2022-11-14T14:30:26;13.80;13.80;8.80
46302;PMS7003;32029;51.358;5.628;2022-11-14T14:35:50;16.00;15.33;11.00
46302;PMS7003;32029;51.358;5.628;2022-11-14T14:38:24;11.60;9.80;8.40
46302;PMS7003;32029;51.358;5.628;2022-11-14T14:40:53;12.67;11.00;9.00
46302;PMS7003;32029;51.358;5.628;2022-11-14T14:43:31;12.60;11.80;8.20
46302;PMS7003;32029;51.358;5.628;2022-11-14T14:46:01;17.17;11.33;8.33
46302;PMS7003;32029;51.358;5.628;2022-11-14T14:48:30;12.40;10.40;7.60
46302;PMS7003;32029;51.358;5.628;2022-11-14T14:51:00;9.00;9.00;8.00
46302;PMS7003;32029;51.358;5.628;2022-11-14T14:53:29;10.00;9.67;8.00
46302;PMS7003;32029;51.358;5.628;2022-11-14T14:55:59;13.33;10.33;6.33
46302;PMS7003;32029;51.358;5.628;2022-11-14T14:58:43;8.80;8.80;8.00
46302;PMS7003;32029;51.358;5.628;2022-11-14T15:03:40;8.67;7.33;7.00
46302;PMS7003;32029;51.358;5.628;2022-11-14T15:06:21;9.00;9.00;8.00
46302;PMS7003;32029;51.358;5.628;2022-11-14T15:08:57;11.60;9.60;6.20
46302;PMS7003;32029;51.358;5.628;2022-11-14T15:11:27;7.67;7.00;5.00
46302;PMS7003;32029;51.358;5.628;2022-11-14T15:13:57;9.80;9.20;7.00
46302;PMS7003;32029;51.358;5.628;2022-11-14T15:16:25;16.67;8.67;7.67
46302;PMS7003;32029;51.358;5.628;2022-11-14T15:18:55;8.67;7.33;5.00
46302;PMS7003;32029;51.358;5.628;2022-11-14T15:21:27;9.33;6.33;5.67
46302;PMS7003;32029;51.358;5.628;2022-11-14T15:23:58;8.00;8.00;7.33
46302;PMS7003;32029;51.358;5.628;2022-11-14T15:26:25;9.00;7.00;5.00
46302;PMS7003;32029;51.358;5.628;2022-11-14T15:29:05;3.33;3.33;2.67
46302;PMS7003;32029;51.358;5.628;2022-11-14T15:31:32;7.33;5.67;4.33
46302;PMS7003;32029;51.358;5.628;2022-11-14T15:34:02;8.00;6.33;5.00
46302;PMS7003;32029;51.358;5.628;2022-11-14T15:39:44;8.33;6.33;4.00
46302;PMS7003;32029;51.358;5.628;2022-11-14T15:42:25;3.00;3.00;3.00
46302;PMS7003;32029;51.358;5.628;2022-11-14T15:44:53;6.00;4.67;3.67
46302;PMS7003;32029;51.358;5.628;2022-11-14T15:47:28;7.67;3.33;3.00
46302;PMS7003;32029;51.358;5.628;2022-11-14T15:50:18;7.00;5.00;4.33
46302;PMS7003;32029;51.358;5.628;2022-11-14T15:52:57;6.33;4.00;3.00
46302;PMS7003;32029;51.358;5.628;2022-11-14T15:55:27;7.00;5.67;4.00
46302;PMS7003;32029;51.358;5.628;2022-11-14T15:57:54;7.67;3.00;3.00
46302;PMS7003;32029;51.358;5.628;2022-11-14T16:00:21;3.00;3.00;3.00
46302;PMS7003;32029;51.358;5.628;2022-11-14T16:02:49;4.33;3.33;3.00
46302;PMS7003;32029;51.358;5.628;2022-11-14T16:05:27;6.67;5.00;3.00
46302;PMS7003;32029;51.358;5.628;2022-11-14T16:07:55;4.33;4.33;3.67
46302;PMS7003;32029;51.358;5.628;2022-11-14T16:10:24;4.00;3.33;3.00
46302;PMS7003;32029;51.358;5.628;2022-11-14T16:12:52;6.00;3.00;2.67
46302;PMS7003;32029;51.358;5.628;2022-11-14T16:15:19;7.00;7.00;5.33
46302;PMS7003;32029;51.358;5.628;2022-11-14T16:17:47;6.00;6.00;4.00